createdAt,value
2018-11-01T00:01:36.214Z,6.69
2018-11-01T00:04:07.269Z,6.67
2018-11-01T00:06:38.261Z,6.66
2018-11-01T00:09:10.777Z,6.68
2018-11-01T00:11:41.778Z,6.78
2018-11-01T00:14:12.910Z,6.84
2018-11-01T00:16:44.155Z,6.91
2018-11-01T00:19:15.176Z,6.95
2018-11-01T00:21:46.303Z,6.91
2018-11-01T00:24:17.296Z,6.97
2018-11-01T00:26:48.333Z,7.00
2018-11-01T00:29:19.325Z,7.09
2018-11-01T00:31:50.335Z,7.10
2018-11-01T00:34:21.312Z,7.06
2018-11-01T00:36:52.312Z,6.92
2018-11-01T00:39:23.357Z,6.82
2018-11-01T00:41:54.788Z,6.71
2018-11-01T00:44:25.865Z,6.65
2018-11-01T00:46:57.246Z,6.64
2018-11-01T00:49:28.552Z,6.65
2018-11-01T00:51:59.611Z,6.59
2018-11-01T00:54:30.616Z,6.55
2018-11-01T00:57:01.693Z,6.46
2018-11-01T00:59:33.046Z,6.36
2018-11-01T01:02:04.225Z,6.38
2018-11-01T01:04:35.426Z,6.40
2018-11-01T01:07:06.543Z,6.31
2018-11-01T01:09:37.462Z,6.34
2018-11-01T01:12:09.059Z,6.36
2018-11-01T01:14:40.089Z,6.26
2018-11-01T01:17:11.057Z,6.16
2018-11-01T01:19:42.159Z,6.08
2018-11-01T01:22:13.737Z,5.99
2018-11-01T01:24:45.294Z,5.98
2018-11-01T01:27:16.632Z,6.04
2018-11-01T01:29:48.489Z,6.20
2018-11-01T01:32:19.612Z,6.32
2018-11-01T01:34:50.796Z,6.48
2018-11-01T01:37:21.962Z,6.42
2018-11-01T01:39:53.427Z,6.27
2018-11-01T01:42:36.586Z,6.24
2018-11-01T01:45:09.327Z,6.23
2018-11-01T01:47:40.724Z,6.37
2018-11-01T01:50:14.578Z,6.43
2018-11-01T01:52:45.949Z,6.37
2018-11-01T01:55:17.360Z,6.34
2018-11-01T01:57:48.348Z,6.36
2018-11-01T02:00:20.983Z,6.44
2018-11-01T02:02:53.434Z,6.44
2018-11-01T02:05:24.944Z,6.47
2018-11-01T02:07:56.413Z,6.48
2018-11-01T02:10:27.420Z,6.51
2018-11-01T02:12:58.452Z,6.57
2018-11-01T02:15:29.401Z,6.55
2018-11-01T02:18:00.471Z,6.51
2018-11-01T02:20:32.389Z,6.46
2018-11-01T02:23:03.436Z,6.40
2018-11-01T02:25:34.528Z,6.33
2018-11-01T02:28:18.827Z,6.23
2018-11-01T02:30:50.210Z,6.14
2018-11-01T02:33:21.287Z,6.10
2018-11-01T02:35:52.694Z,6.09
2018-11-01T02:38:24.121Z,6.02
2018-11-01T02:40:55.306Z,5.96
2018-11-01T02:43:26.649Z,5.87
2018-11-01T02:46:02.224Z,5.85
2018-11-01T02:48:33.499Z,5.77
2018-11-01T02:51:04.572Z,5.77
2018-11-01T02:53:36.017Z,5.79
2018-11-01T02:56:07.324Z,5.79
2018-11-01T02:58:38.391Z,5.75
2018-11-01T03:01:09.443Z,5.88
2018-11-01T03:03:40.527Z,5.96
2018-11-01T03:06:11.479Z,6.00
2018-11-01T03:08:42.717Z,6.02
2018-11-01T03:11:13.834Z,6.04
2018-11-01T03:13:45.346Z,6.11
2018-11-01T03:16:16.335Z,6.24
2018-11-01T03:18:47.969Z,6.40
2018-11-01T03:21:19.340Z,6.42
2018-11-01T03:23:50.389Z,6.62
2018-11-01T03:26:21.663Z,6.59
2018-11-01T03:28:52.662Z,6.58
2018-11-01T03:31:24.173Z,6.57
2018-11-01T03:33:55.285Z,6.60
2018-11-01T03:36:26.805Z,6.61
2018-11-01T03:38:58.281Z,6.67
2018-11-01T03:41:29.136Z,6.90
2018-11-01T03:44:00.899Z,6.93
2018-11-01T03:46:32.603Z,6.90
2018-11-01T03:49:03.763Z,6.94
2018-11-01T03:51:34.939Z,6.89
2018-11-01T03:54:06.725Z,6.87
2018-11-01T03:56:38.913Z,6.87
2018-11-01T03:59:10.040Z,6.84
2018-11-01T04:01:41.508Z,6.92
2018-11-01T04:04:12.640Z,7.05
2018-11-01T04:06:43.725Z,7.10
2018-11-01T04:09:15.559Z,7.03
2018-11-01T04:11:46.487Z,7.03
2018-11-01T04:14:17.591Z,7.04
2018-11-01T04:16:48.657Z,7.00
2018-11-01T04:19:19.679Z,6.95
2018-11-01T04:21:54.325Z,6.94
2018-11-01T04:24:25.682Z,6.90
2018-11-01T04:26:56.857Z,6.86
2018-11-01T04:29:27.971Z,6.90
2018-11-01T04:31:59.317Z,6.97
2018-11-01T04:34:30.861Z,7.04
2018-11-01T04:37:01.803Z,7.05
2018-11-01T04:39:32.743Z,7.10
2018-11-01T04:42:03.949Z,7.15
2018-11-01T04:44:35.221Z,7.23
2018-11-01T04:47:06.275Z,7.23
2018-11-01T04:49:37.605Z,7.26
2018-11-01T04:52:09.031Z,7.25
2018-11-01T04:54:40.137Z,7.24
2018-11-01T04:57:11.122Z,7.35
2018-11-01T04:59:42.179Z,7.40
2018-11-01T05:02:13.187Z,7.62
2018-11-01T05:04:44.150Z,7.68
2018-11-01T05:07:15.156Z,7.66
2018-11-01T05:09:47.192Z,7.67
2018-11-01T05:12:18.200Z,7.67
2018-11-01T05:14:49.307Z,7.64
2018-11-01T05:17:20.327Z,7.64
2018-11-01T05:19:51.487Z,7.66
2018-11-01T05:22:22.530Z,7.65
2018-11-01T05:24:53.647Z,7.69
2018-11-01T05:27:24.626Z,7.70
2018-11-01T05:29:55.575Z,7.74
2018-11-01T05:32:26.615Z,7.74
2018-11-01T05:34:58.318Z,7.77
2018-11-01T05:37:29.413Z,7.78
2018-11-01T05:40:00.377Z,7.79
2018-11-01T05:42:32.505Z,7.76
2018-11-01T05:45:03.992Z,7.70
2018-11-01T05:47:34.968Z,7.68
2018-11-01T05:50:06.144Z,7.65
2018-11-01T05:52:37.220Z,7.68
2018-11-01T05:55:09.019Z,7.70
2018-11-01T05:57:39.958Z,7.83
2018-11-01T06:00:15.207Z,7.92
2018-11-01T06:02:50.148Z,8.05
2018-11-01T06:05:21.020Z,8.21
2018-11-01T06:08:11.912Z,8.22
2018-11-01T06:10:42.803Z,8.13
2018-11-01T06:13:13.660Z,8.10
2018-11-01T06:15:44.540Z,8.05
2018-11-01T06:18:15.420Z,7.98
2018-11-01T06:20:46.371Z,7.85
2018-11-01T06:23:17.224Z,7.88
2018-11-01T06:25:48.280Z,8.02
2018-11-01T06:28:19.184Z,8.12
2018-11-01T06:30:50.343Z,8.10
2018-11-01T06:33:21.530Z,8.22
2018-11-01T06:35:54.307Z,8.24
2018-11-01T06:38:25.235Z,8.32
2018-11-01T06:40:56.453Z,8.42
2018-11-01T06:43:27.931Z,8.51
2018-11-01T06:45:58.820Z,8.55
2018-11-01T06:48:29.731Z,8.61
2018-11-01T06:51:00.625Z,8.55
2018-11-01T06:53:31.534Z,8.55
2018-11-01T06:56:02.704Z,8.49
2018-11-01T06:58:34.313Z,8.46
2018-11-01T07:01:05.029Z,8.55
2018-11-01T07:03:35.952Z,8.52
2018-11-01T07:06:07.033Z,8.62
2018-11-01T07:08:38.268Z,8.69
2018-11-01T07:11:09.152Z,8.65
2018-11-01T07:13:40.044Z,8.66
2018-11-01T07:16:10.946Z,8.71
2018-11-01T07:18:41.847Z,8.78
2018-11-01T07:21:12.744Z,8.81
2018-11-01T07:23:43.658Z,8.87
2018-11-01T07:26:14.722Z,8.88
2018-11-01T07:28:45.774Z,9.03
2018-11-01T07:31:17.078Z,9.14
2018-11-01T07:33:47.980Z,9.23
2018-11-01T07:36:19.066Z,9.24
2018-11-01T07:38:50.516Z,9.22
2018-11-01T07:41:21.748Z,9.29
2018-11-01T07:43:52.694Z,9.40
2018-11-01T07:46:23.579Z,9.45
2018-11-01T07:48:54.744Z,9.40
2018-11-01T07:51:25.909Z,9.46
2018-11-01T07:53:56.873Z,9.47
2018-11-01T07:56:27.756Z,9.50
2018-11-01T07:58:58.807Z,9.56
2018-11-01T08:01:29.746Z,9.52
2018-11-01T08:04:01.284Z,9.50
2018-11-01T08:06:32.281Z,9.54
2018-11-01T08:09:05.024Z,9.51
2018-11-01T08:11:36.548Z,9.55
2018-11-01T08:14:08.169Z,9.66
2018-11-01T08:16:39.426Z,9.67
2018-11-01T08:19:10.950Z,9.62
2018-11-01T08:21:42.134Z,9.64
2018-11-01T08:24:13.275Z,9.63
2018-11-01T08:26:44.564Z,9.71
2018-11-01T08:29:15.554Z,9.72
2018-11-01T08:31:46.449Z,9.78
2018-11-01T08:34:17.350Z,9.78
2018-11-01T08:36:48.258Z,9.80
2018-11-01T08:39:19.567Z,9.80
2018-11-01T08:41:50.610Z,9.74
2018-11-01T08:44:21.525Z,9.72
2018-11-01T08:46:52.426Z,9.69
2018-11-01T08:49:23.422Z,9.64
2018-11-01T08:51:54.324Z,9.59
2018-11-01T08:54:25.656Z,9.64
2018-11-01T08:56:56.583Z,9.65
2018-11-01T08:59:27.857Z,9.64
2018-11-01T09:01:59.080Z,9.66
2018-11-01T09:04:30.351Z,9.66
2018-11-01T09:07:01.566Z,9.74
2018-11-01T09:09:32.509Z,9.84
2018-11-01T09:12:03.785Z,9.90
2018-11-01T09:14:35.664Z,9.94
2018-11-01T09:17:06.728Z,9.98
2018-11-01T09:19:38.394Z,10.03
2018-11-01T09:22:09.936Z,10.10
2018-11-01T09:24:40.927Z,10.17
2018-11-01T09:27:11.865Z,10.18
2018-11-01T09:29:43.173Z,10.25
2018-11-01T09:32:14.107Z,10.25
2018-11-01T09:34:45.556Z,10.34
2018-11-01T09:37:16.809Z,10.36
2018-11-01T09:39:48.146Z,10.39
2018-11-01T09:42:19.166Z,10.41
2018-11-01T09:44:50.171Z,10.39
2018-11-01T09:47:21.492Z,10.48
2018-11-01T09:49:52.445Z,10.46
2018-11-01T09:52:24.005Z,10.40
2018-11-01T09:54:54.996Z,10.40
2018-11-01T09:57:26.251Z,10.35
2018-11-01T09:59:57.157Z,10.30
2018-11-01T10:02:28.808Z,10.35
2018-11-01T10:04:59.728Z,10.48
2018-11-01T10:07:31.039Z,10.54
2018-11-01T10:10:01.958Z,10.60
2018-11-01T10:12:33.165Z,10.62
2018-11-01T10:15:04.102Z,10.66
2018-11-01T10:17:35.800Z,10.67
2018-11-01T10:20:08.400Z,10.65
2018-11-01T10:22:39.736Z,10.67
2018-11-01T10:25:12.774Z,10.73
2018-11-01T10:27:43.750Z,10.74
2018-11-01T10:30:17.020Z,10.65
2018-11-01T10:32:48.726Z,10.64
2018-11-01T10:35:20.255Z,10.64
2018-11-01T10:37:51.109Z,10.64
2018-11-01T10:40:22.661Z,10.69
2018-11-01T10:42:54.126Z,10.68
2018-11-01T10:45:25.334Z,10.81
2018-11-01T10:47:56.341Z,10.84
2018-11-01T10:50:27.313Z,10.85
2018-11-01T10:52:58.619Z,10.93
2018-11-01T10:55:29.637Z,10.93
2018-11-01T10:58:01.163Z,11.00
2018-11-01T11:00:49.520Z,11.10
2018-11-01T11:03:20.732Z,11.17
2018-11-01T11:05:51.863Z,11.26
2018-11-01T11:08:23.165Z,11.41
2018-11-01T11:10:54.523Z,11.43
2018-11-01T11:13:25.747Z,11.46
2018-11-01T11:15:57.174Z,11.42
2018-11-01T11:18:28.598Z,11.54
2018-11-01T11:21:00.126Z,11.73
2018-11-01T11:23:30.736Z,11.90
2018-11-01T11:26:02.021Z,11.99
2018-11-01T11:28:33.523Z,12.17
2018-11-01T11:31:04.997Z,12.20
2018-11-01T11:33:36.389Z,12.30
2018-11-01T11:36:07.838Z,12.43
2018-11-01T11:38:38.745Z,12.54
2018-11-01T11:41:09.805Z,12.50
2018-11-01T11:43:40.766Z,12.48
2018-11-01T11:46:12.144Z,12.41
2018-11-01T11:48:43.210Z,12.40
2018-11-01T11:51:14.310Z,12.49
2018-11-01T11:53:45.621Z,12.59
2018-11-01T11:56:17.462Z,12.68
2018-11-01T11:58:48.440Z,12.74
2018-11-01T12:01:19.411Z,12.87
2018-11-01T12:03:50.373Z,12.93
2018-11-01T12:06:21.790Z,13.02
2018-11-01T12:08:52.612Z,13.04
2018-11-01T12:11:23.668Z,12.93
2018-11-01T12:13:54.709Z,12.90
2018-11-01T12:16:26.057Z,12.83
2018-11-01T12:18:57.854Z,12.69
2018-11-01T12:21:28.973Z,12.64
2018-11-01T12:24:00.549Z,12.71
2018-11-01T12:26:31.906Z,12.75
2018-11-01T12:29:03.183Z,12.66
2018-11-01T12:31:35.477Z,12.66
2018-11-01T12:34:07.045Z,12.51
2018-11-01T12:36:38.237Z,12.42
2018-11-01T12:39:10.170Z,12.44
2018-11-01T12:41:41.258Z,12.47
2018-11-01T12:44:12.265Z,12.52
2018-11-01T12:46:43.305Z,12.53
2018-11-01T12:49:14.907Z,12.58
2018-11-01T12:51:46.202Z,12.53
2018-11-01T12:54:17.506Z,12.57
2018-11-01T12:56:48.485Z,12.49
2018-11-01T12:59:19.418Z,12.47
2018-11-01T13:01:50.426Z,12.52
2018-11-01T13:04:21.473Z,12.43
2018-11-01T13:06:52.453Z,12.37
2018-11-01T13:09:23.421Z,12.34
2018-11-01T13:11:54.401Z,12.32
2018-11-01T13:14:26.022Z,12.35
2018-11-01T13:16:57.780Z,12.30
2018-11-01T13:19:29.646Z,12.29
2018-11-01T13:22:00.682Z,12.38
2018-11-01T13:24:31.950Z,12.37
2018-11-01T13:27:03.383Z,12.30
2018-11-01T13:29:34.391Z,12.28
2018-11-01T13:32:05.444Z,12.16
2018-11-01T13:34:36.769Z,12.14
2018-11-01T13:37:07.717Z,12.11
2018-11-01T13:39:39.278Z,12.16
2018-11-01T13:42:10.177Z,12.22
2018-11-01T13:44:41.396Z,12.30
2018-11-01T13:47:12.434Z,12.49
2018-11-01T13:49:43.644Z,12.83
2018-11-01T13:52:14.721Z,13.27
2018-11-01T13:54:45.827Z,14.95
2018-11-01T13:57:16.967Z,16.26
2018-11-01T13:59:48.026Z,17.38
2018-11-01T14:02:19.100Z,18.31
2018-11-01T14:04:50.178Z,19.22
2018-11-01T14:07:21.220Z,19.73
2018-11-01T14:09:52.386Z,19.04
2018-11-01T14:12:23.530Z,18.92
2018-11-01T14:14:54.871Z,18.93
2018-11-01T14:17:25.580Z,19.15
2018-11-01T14:19:56.585Z,19.12
2018-11-01T14:22:27.705Z,18.85
2018-11-01T14:24:58.833Z,18.84
2018-11-01T14:27:29.901Z,17.79
2018-11-01T14:30:00.868Z,18.09
2018-11-01T14:32:32.219Z,17.62
2018-11-01T14:35:04.028Z,16.41
2018-11-01T14:37:35.278Z,16.08
2018-11-01T14:40:08.141Z,15.95
2018-11-01T14:42:39.397Z,14.87
2018-11-01T14:45:10.887Z,14.34
2018-11-01T14:47:42.001Z,14.24
2018-11-01T14:50:13.296Z,13.78
2018-11-01T14:52:44.570Z,13.41
2018-11-01T14:55:16.483Z,13.27
2018-11-01T14:57:47.700Z,13.13
2018-11-01T15:00:17.312Z,13.14
2018-11-01T15:02:48.384Z,13.12
2018-11-01T15:05:19.689Z,13.24
2018-11-01T15:07:50.987Z,13.39
2018-11-01T15:10:21.909Z,13.28
2018-11-01T15:12:53.396Z,13.07
2018-11-01T15:15:24.341Z,12.83
2018-11-01T15:17:55.736Z,12.63
2018-11-01T15:20:26.736Z,12.47
2018-11-01T15:22:58.013Z,12.12
2018-11-01T15:25:29.326Z,11.79
2018-11-01T15:28:00.646Z,11.53
2018-11-01T15:30:31.695Z,11.60
2018-11-01T15:33:02.738Z,11.65
2018-11-01T15:35:33.689Z,11.63
2018-11-01T15:38:05.096Z,11.52
2018-11-01T15:40:36.193Z,11.38
2018-11-01T15:43:07.201Z,11.21
2018-11-01T15:45:38.673Z,10.93
2018-11-01T15:48:09.710Z,10.56
2018-11-01T15:50:40.650Z,10.20
2018-11-01T15:53:11.700Z,9.87
2018-11-01T15:55:42.785Z,9.58
2018-11-01T15:58:14.085Z,9.36
2018-11-01T16:00:45.095Z,9.14
2018-11-01T16:03:16.537Z,8.90
2018-11-01T16:05:47.760Z,8.68
2018-11-01T16:08:18.905Z,8.42
2018-11-01T16:10:50.935Z,8.16
2018-11-01T16:13:22.514Z,8.01
2018-11-01T16:15:53.920Z,7.99
2018-11-01T16:18:25.452Z,7.89
2018-11-01T16:20:56.918Z,7.83
2018-11-01T16:23:28.074Z,7.73
2018-11-01T16:25:59.080Z,7.58
2018-11-01T16:28:30.249Z,7.49
2018-11-01T16:31:01.253Z,7.36
2018-11-01T16:33:33.117Z,7.24
2018-11-01T16:36:04.470Z,7.12
2018-11-01T16:38:35.667Z,7.11
2018-11-01T16:41:06.983Z,7.17
2018-11-01T16:43:38.161Z,7.42
2018-11-01T16:46:09.317Z,7.82
2018-11-01T16:48:40.619Z,8.00
2018-11-01T16:51:11.818Z,7.78
2018-11-01T16:53:42.730Z,7.45
2018-11-01T16:56:13.845Z,7.21
2018-11-01T16:58:44.870Z,7.07
2018-11-01T17:01:16.440Z,7.00
2018-11-01T17:03:47.570Z,6.96
2018-11-01T17:06:18.699Z,6.89
2018-11-01T17:08:49.773Z,6.86
2018-11-01T17:11:20.899Z,6.76
2018-11-01T17:13:51.882Z,6.64
2018-11-01T17:16:23.275Z,6.50
2018-11-01T17:18:54.808Z,6.38
2018-11-01T17:21:25.984Z,6.37
2018-11-01T17:23:57.296Z,6.33
2018-11-01T17:26:28.863Z,6.31
2018-11-01T17:28:59.889Z,6.29
2018-11-01T17:31:30.845Z,6.22
2018-11-01T17:34:01.984Z,6.36
2018-11-01T17:36:32.863Z,6.62
2018-11-01T17:39:04.614Z,6.56
2018-11-01T17:41:35.518Z,6.46
2018-11-01T17:44:06.524Z,6.38
2018-11-01T17:46:37.456Z,6.36
2018-11-01T17:49:09.410Z,6.28
2018-11-01T17:51:40.567Z,6.25
2018-11-01T17:54:17.928Z,6.24
2018-11-01T17:56:48.857Z,6.27
2018-11-01T17:59:19.793Z,6.49
2018-11-01T18:01:51.230Z,6.71
2018-11-01T18:04:22.105Z,6.79
2018-11-01T18:06:53.090Z,6.69
2018-11-01T18:09:24.008Z,6.55
2018-11-01T18:11:54.943Z,6.40
2018-11-01T18:14:25.919Z,6.29
2018-11-01T18:16:56.797Z,6.17
2018-11-01T18:19:27.787Z,6.05
2018-11-01T18:21:58.788Z,5.97
2018-11-01T18:24:29.691Z,5.86
2018-11-01T18:27:00.638Z,5.81
2018-11-01T18:29:31.573Z,5.77
2018-11-01T18:32:03.104Z,5.82
2018-11-01T18:34:34.092Z,5.95
2018-11-01T18:37:05.558Z,6.08
2018-11-01T18:39:36.628Z,6.32
2018-11-01T18:42:07.930Z,6.66
2018-11-01T18:44:39.348Z,6.92
2018-11-01T18:47:10.352Z,7.12
2018-11-01T18:49:41.305Z,7.18
2018-11-01T18:52:12.300Z,7.13
2018-11-01T18:54:43.449Z,7.04
2018-11-01T18:57:14.460Z,7.10
2018-11-01T18:59:45.389Z,7.10
2018-11-01T19:02:16.468Z,7.08
2018-11-01T19:04:47.439Z,6.93
2018-11-01T19:07:18.387Z,6.64
2018-11-01T19:09:49.329Z,6.57
2018-11-01T19:12:20.297Z,6.69
2018-11-01T19:14:51.208Z,6.53
2018-11-01T19:17:22.170Z,6.29
2018-11-01T19:19:53.377Z,6.03
2018-11-01T19:22:24.278Z,5.86
2018-11-01T19:24:55.201Z,6.22
2018-11-01T19:27:26.495Z,6.54
2018-11-01T19:29:57.392Z,6.80
2018-11-01T19:32:28.579Z,7.01
2018-11-01T19:34:59.532Z,6.97
2018-11-01T19:37:30.957Z,6.57
2018-11-01T19:40:02.088Z,6.25
2018-11-01T19:42:32.889Z,6.31
2018-11-01T19:45:03.846Z,6.41
2018-11-01T19:47:35.067Z,6.41
2018-11-01T19:50:06.859Z,6.50
2018-11-01T19:52:37.910Z,6.50
2018-11-01T19:55:08.816Z,6.53
2018-11-01T19:57:40.282Z,6.56
2018-11-01T20:00:16.043Z,6.43
2018-11-01T20:02:46.300Z,6.31
2018-11-01T20:05:17.186Z,6.05
2018-11-01T20:07:48.410Z,5.75
2018-11-01T20:10:19.499Z,5.47
2018-11-01T20:12:50.702Z,5.17
2018-11-01T20:15:21.675Z,4.87
2018-11-01T20:17:52.627Z,4.71
2018-11-01T20:20:24.306Z,4.59
2018-11-01T20:22:56.013Z,4.54
2018-11-01T20:25:27.062Z,4.38
2018-11-01T20:27:57.972Z,4.23
2018-11-01T20:30:29.230Z,4.14
2018-11-01T20:33:00.134Z,4.08
2018-11-01T20:35:31.126Z,3.97
2018-11-01T20:38:02.462Z,3.94
2018-11-01T20:40:33.525Z,3.96
2018-11-01T20:43:04.480Z,3.99
2018-11-01T20:45:35.384Z,3.99
2018-11-01T20:48:06.818Z,3.96
2018-11-01T20:50:37.758Z,3.87
2018-11-01T20:53:11.631Z,3.76
2018-11-01T20:55:42.701Z,3.68
2018-11-01T20:58:13.792Z,3.61
2018-11-01T21:00:45.052Z,3.55
2018-11-01T21:03:15.950Z,3.53
2018-11-01T21:05:47.185Z,3.47
2018-11-01T21:08:18.555Z,3.43
2018-11-01T21:10:49.942Z,3.37
2018-11-01T21:13:20.846Z,3.30
2018-11-01T21:15:51.801Z,3.24
2018-11-01T21:18:22.903Z,3.10
2018-11-01T21:20:54.560Z,3.01
2018-11-01T21:23:25.500Z,3.01
2018-11-01T21:25:56.821Z,2.96
2018-11-01T21:28:28.008Z,2.99
2018-11-01T21:30:59.471Z,3.07
2018-11-01T21:33:30.646Z,3.07
2018-11-01T21:36:01.718Z,3.07
2018-11-01T21:38:32.815Z,3.06
2018-11-01T21:41:03.786Z,3.12
2018-11-01T21:43:34.698Z,3.12
2018-11-01T21:46:05.748Z,3.18
2018-11-01T21:48:37.439Z,3.18
2018-11-01T21:51:08.806Z,3.17
2018-11-01T21:53:39.783Z,3.14
2018-11-01T21:56:11.045Z,3.12
2018-11-01T21:58:42.310Z,3.09
2018-11-01T22:01:13.208Z,3.19
2018-11-01T22:03:44.637Z,3.10
2018-11-01T22:06:16.229Z,3.09
2018-11-01T22:08:47.141Z,3.00
2018-11-01T22:11:18.892Z,3.00
2018-11-01T22:13:50.218Z,3.08
2018-11-01T22:16:21.189Z,3.14
2018-11-01T22:18:52.118Z,3.13
2018-11-01T22:21:23.413Z,3.09
2018-11-01T22:23:54.779Z,3.08
2018-11-01T22:26:25.788Z,3.03
2018-11-01T22:28:57.015Z,3.07
2018-11-01T22:31:28.230Z,2.99
2018-11-01T22:33:59.224Z,2.92
2018-11-01T22:36:30.470Z,2.87
2018-11-01T22:39:01.701Z,2.88
2018-11-01T22:41:32.963Z,3.10
2018-11-01T22:44:03.871Z,3.24
2018-11-01T22:46:34.811Z,3.17
2018-11-01T22:49:05.727Z,3.19
2018-11-01T22:51:36.918Z,3.12
2018-11-01T22:54:08.060Z,2.99
2018-11-01T22:56:40.455Z,2.98
2018-11-01T22:59:11.694Z,3.34
2018-11-01T23:01:42.630Z,3.31
2018-11-01T23:04:16.061Z,3.25
2018-11-01T23:06:49.559Z,3.35
2018-11-01T23:09:20.836Z,3.34
2018-11-01T23:11:52.255Z,3.21
2018-11-01T23:14:23.792Z,3.01
2018-11-01T23:16:54.793Z,2.77
2018-11-01T23:19:25.729Z,2.65
2018-11-01T23:21:57.522Z,2.62
2018-11-01T23:24:29.496Z,2.75
2018-11-01T23:27:00.927Z,2.81
2018-11-01T23:29:32.112Z,2.93
2018-11-01T23:32:03.784Z,3.13
2018-11-01T23:34:35.367Z,3.21
2018-11-01T23:37:24.276Z,3.38
2018-11-01T23:40:12.596Z,3.37
2018-11-01T23:43:02.307Z,3.24
2018-11-01T23:45:50.314Z,3.39
2018-11-01T23:48:19.975Z,3.22
2018-11-01T23:51:01.688Z,3.13
2018-11-01T23:53:35.301Z,3.10
2018-11-01T23:56:06.315Z,2.99
2018-11-01T23:58:37.296Z,2.88
